Time;durP1;ratioP1;P1;durP2;ratioP2;P2;SDS_P1;SDS_P2;PMS_P1;PMS_P2;Temp;Humidity;BMP_temperature;BMP_pressure;BME280_temperature;BME280_humidity;BME280_pressure;Samples;Min_cycle;Max_cycle;Signal;HPM_P1;HPM_P2
2023/02/07 00:03:01;;;;;;;;;;;;;;;18.14;29.62;97351.09;10426141;28;3665;-53
2023/02/07 00:08:02;;;;;;;;;;;;;;;18.13;29.60;97346.06;10421844;28;3301;-51
2023/02/07 00:13:02;;;;;;;;;;;;;;;18.11;29.71;97337.59;10417559;28;2498;-50
2023/02/07 00:18:03;;;;;;;;;;;;;;;18.08;29.47;97333.59;10420725;28;2873;-52
2023/02/07 00:23:03;;;;;;;;;;;;;;;18.06;29.65;97340.88;10419656;28;3286;-53
2023/02/07 00:28:03;;;;;;;;;;;;;;;18.04;29.60;97334.25;10425637;28;3349;-50
2023/02/07 00:33:04;;;;;;;;;;;;;;;18.03;29.50;97324.78;10424881;28;2404;-52
2023/02/07 00:38:04;;;;;;;;;;;;;;;17.99;29.54;97308.66;10424054;28;2466;-53
2023/02/07 00:43:04;;;;;;;;;;;;;;;17.98;29.47;97314.94;10426843;28;3445;-52
2023/02/07 00:48:04;;;;;;;;;;;;;;;17.95;29.50;97311.97;10418040;28;2900;-49
2023/02/07 00:53:05;;;;;;;;;;;;;;;17.94;29.57;97303.28;10432505;28;2820;-50
2023/02/07 00:58:05;;;;;;;;;;;;;;;17.92;29.51;97299.25;10425103;28;2985;-53
2023/02/07 01:03:05;;;;;;;;;;;;;;;17.91;29.47;97308.16;10426666;28;2940;-53
2023/02/07 01:08:05;;;;;;;;;;;;;;;17.87;29.57;97311.22;10414715;28;3305;-53
2023/02/07 01:13:06;;;;;;;;;;;;;;;17.85;29.58;97320.31;10427046;28;3273;-51
2023/02/07 01:18:06;;;;;;;;;;;;;;;17.82;29.45;97326.81;10421970;28;2952;-53
2023/02/07 01:23:10;;;;;;;;;;;;;;;17.82;29.51;97333.88;10417144;28;2845;-54
2023/02/07 01:28:13;;;;;;;;;;;;;;;17.81;29.44;97333.06;10427637;28;2428;-52
2023/02/07 01:33:13;;;;;;;;;;;;;;;17.82;29.37;97349.63;10407196;28;3317;-54
2023/02/07 01:38:14;;;;;;;;;;;;;;;17.82;29.44;97355.69;10400375;28;3257;-51
2023/02/07 01:43:15;;;;;;;;;;;;;;;17.84;29.34;97345.78;10412820;28;2405;-53
2023/02/07 01:48:18;;;;;;;;;;;;;;;17.84;29.41;97337.91;10428973;28;3309;-54
2023/02/07 01:53:20;;;;;;;;;;;;;;;17.85;29.33;97336.88;10420580;28;2863;-52
2023/02/07 01:58:20;;;;;;;;;;;;;;;17.88;29.38;97354.00;10423304;28;2368;-49
2023/02/07 02:03:20;;;;;;;;;;;;;;;17.88;29.25;97343.50;10394160;28;3262;-49
2023/02/07 02:08:21;;;;;;;;;;;;;;;17.89;29.15;97356.41;10420766;28;2838;-50
2023/02/07 02:13:40;;;;;;;;;;;;;;;17.91;29.21;97350.16;10418597;28;2860;-53
2023/02/07 02:18:47;;;;;;;;;;;;;;;17.89;29.21;97350.34;10399747;28;3316;-53
2023/02/07 02:24:13;;;;;;;;;;;;;;;17.92;29.07;97367.47;10438812;28;3408;-51
2023/02/07 02:29:46;;;;;;;;;;;;;;;17.93;29.03;97363.84;10454255;28;2813;-54
2023/02/07 02:35:15;;;;;;;;;;;;;;;17.92;29.11;97351.72;10473163;28;3236;-51
2023/02/07 02:40:42;;;;;;;;;;;;;;;17.92;29.00;97354.34;10459192;28;3434;-51
2023/02/07 02:46:14;;;;;;;;;;;;;;;17.93;28.94;97355.97;10460797;28;2829;-49
2023/02/07 02:51:34;;;;;;;;;;;;;;;17.93;28.98;97364.63;10463967;28;2804;-52
2023/02/07 02:57:13;;;;;;;;;;;;;;;17.94;29.02;97384.59;10469546;28;2655;-49
2023/02/07 03:02:46;;;;;;;;;;;;;;;17.93;28.95;97377.75;10461386;28;2557;-53
2023/02/07 03:08:15;;;;;;;;;;;;;;;17.95;28.88;97395.91;10455303;28;2836;-54
2023/02/07 03:13:55;;;;;;;;;;;;;;;17.95;28.93;97393.28;10457278;28;2801;-52
2023/02/07 03:19:22;;;;;;;;;;;;;;;17.95;28.88;97372.31;10459823;28;3420;-53
2023/02/07 03:24:46;;;;;;;;;;;;;;;17.96;28.93;97376.50;10452898;28;2497;-52
2023/02/07 03:30:08;;;;;;;;;;;;;;;17.94;28.76;97363.63;10446918;28;3244;-51
2023/02/07 03:35:29;;;;;;;;;;;;;;;17.96;28.78;97350.28;10455837;28;2426;-50
2023/02/07 03:40:51;;;;;;;;;;;;;;;17.95;28.76;97346.84;10475018;28;2907;-50
2023/02/07 03:46:11;;;;;;;;;;;;;;;17.96;28.66;97337.16;10471190;28;2876;-51
2023/02/07 03:51:32;;;;;;;;;;;;;;;17.96;28.65;97339.78;10470872;28;2496;-54
2023/02/07 03:56:52;;;;;;;;;;;;;;;17.96;28.64;97372.06;10467172;28;2834;-52
2023/02/07 04:02:13;;;;;;;;;;;;;;;17.96;28.53;97384.38;10468699;28;2856;-53
2023/02/07 04:07:33;;;;;;;;;;;;;;;17.97;28.63;97384.16;10469398;28;2827;-50
2023/02/07 04:12:53;;;;;;;;;;;;;;;17.96;28.53;97387.81;10470315;28;3256;-51
2023/02/07 04:18:13;;;;;;;;;;;;;;;17.94;28.51;97366.25;10467460;28;3296;-51
2023/02/07 04:23:34;;;;;;;;;;;;;;;17.95;28.52;97351.31;10446083;28;3302;-55
2023/02/07 04:28:54;;;;;;;;;;;;;;;17.94;28.52;97360.19;10431369;28;3242;-52
2023/02/07 04:34:14;;;;;;;;;;;;;;;17.92;28.54;97347.28;10412001;28;3483;-49
2023/02/07 04:39:34;;;;;;;;;;;;;;;17.92;28.40;97343.88;10428005;28;2853;-51
2023/02/07 04:44:55;;;;;;;;;;;;;;;17.92;28.28;97318.44;10426906;28;2474;-52
2023/02/07 04:50:15;;;;;;;;;;;;;;;17.91;28.45;97326.53;10427847;28;3294;-55
2023/02/07 04:55:36;;;;;;;;;;;;;;;17.91;28.38;97316.03;10417934;28;2965;-51
2023/02/07 05:00:56;;;;;;;;;;;;;;;17.90;28.46;97320.47;10417713;28;2501;-53
2023/02/07 05:06:16;;;;;;;;;;;;;;;17.89;28.34;97324.91;10425594;28;2936;-51
2023/02/07 05:11:36;;;;;;;;;;;;;;;17.92;28.45;97342.06;10425040;28;2466;-51
2023/02/07 05:16:56;;;;;;;;;;;;;;;17.96;28.53;97345.03;10423507;28;2825;-53
2023/02/07 05:22:17;;;;;;;;;;;;;;;18.04;28.38;97339.50;10422691;28;2753;-52
2023/02/07 05:27:37;;;;;;;;;;;;;;;18.09;28.38;97344.91;10412639;28;2880;-51
2023/02/07 05:33:06;;;;;;;;;;;;;;;18.18;28.21;97364.56;10418155;28;2470;-52
2023/02/07 05:38:26;;;;;;;;;;;;;;;18.25;28.08;97375.78;10416165;28;2529;-49
2023/02/07 05:43:47;;;;;;;;;;;;;;;18.29;27.94;97362.03;10416346;28;2769;-51
2023/02/07 05:49:07;;;;;;;;;;;;;;;18.32;27.93;97368.66;10417092;28;2973;-48
2023/02/07 05:54:27;;;;;;;;;;;;;;;18.34;27.97;97367.38;10433100;28;2849;-50
2023/02/07 05:59:47;;;;;;;;;;;;;;;18.36;27.88;97367.19;10424402;28;2932;-48
2023/02/07 06:05:08;;;;;;;;;;;;;;;18.37;27.89;97368.78;10421073;28;2464;-54
2023/02/07 06:10:28;;;;;;;;;;;;;;;18.40;27.90;97365.72;10430377;28;2851;-53
2023/02/07 06:15:28;;;;;;;;;;;;;;;18.42;27.81;97384.69;10428556;28;2872;-54
2023/02/07 06:20:28;;;;;;;;;;;;;;;18.40;27.68;97371.75;10427665;28;2848;-50
2023/02/07 06:25:29;;;;;;;;;;;;;;;18.42;27.75;97388.09;10471167;28;2446;-49
2023/02/07 06:30:29;;;;;;;;;;;;;;;18.43;27.68;97381.03;10465980;28;3244;-52
2023/02/07 06:35:29;;;;;;;;;;;;;;;18.44;27.67;97382.69;10470768;28;3459;-54
2023/02/07 06:40:29;;;;;;;;;;;;;;;18.46;27.71;97384.06;10466308;28;2793;-54
2023/02/07 06:45:30;;;;;;;;;;;;;;;18.50;27.56;97381.78;10467660;28;2890;-50
2023/02/07 06:50:30;;;;;;;;;;;;;;;18.53;27.54;97392.66;10475458;28;2394;-52
2023/02/07 06:55:31;;;;;;;;;;;;;;;18.58;27.36;97392.00;10473139;28;3252;-49
2023/02/07 07:00:31;;;;;;;;;;;;;;;18.60;27.21;97390.75;10467263;28;3248;-48
2023/02/07 07:05:31;;;;;;;;;;;;;;;18.62;27.13;97396.59;10470198;28;3622;-53
2023/02/07 07:10:31;;;;;;;;;;;;;;;18.66;27.37;97400.38;10459483;28;3228;-54
2023/02/07 07:15:32;;;;;;;;;;;;;;;18.69;27.46;97405.16;10463579;28;3227;-46
2023/02/07 07:20:32;;;;;;;;;;;;;;;18.73;27.43;97395.03;10459373;28;2532;-53
2023/02/07 07:25:32;;;;;;;;;;;;;;;18.76;27.49;97407.72;10423825;28;2849;-51
2023/02/07 07:30:32;;;;;;;;;;;;;;;18.79;28.16;97404.66;10425411;28;2428;-52
2023/02/07 07:35:33;;;;;;;;;;;;;;;18.83;28.36;97413.69;10422744;28;2904;-54
2023/02/07 07:40:33;;;;;;;;;;;;;;;18.89;27.96;97404.94;10420588;28;3286;-53
2023/02/07 07:45:33;;;;;;;;;;;;;;;18.92;28.17;97399.22;10413101;28;2888;-53
2023/02/07 07:50:33;;;;;;;;;;;;;;;18.94;28.28;97399.78;10425240;28;2918;-49
2023/02/07 07:55:34;;;;;;;;;;;;;;;18.96;28.34;97378.56;10412716;28;2876;-51
2023/02/07 08:00:34;;;;;;;;;;;;;;;19.00;28.29;97369.19;10415301;28;2824;-52
2023/02/07 08:05:34;;;;;;;;;;;;;;;19.04;28.24;97386.91;10419365;28;2514;-51
2023/02/07 08:10:35;;;;;;;;;;;;;;;19.05;28.24;97377.19;10423631;28;2857;-53
2023/02/07 08:15:35;;;;;;;;;;;;;;;19.05;28.29;97387.72;10413898;28;3246;-51
2023/02/07 08:20:35;;;;;;;;;;;;;;;19.01;28.43;97387.38;10424535;28;3340;-54
2023/02/07 08:25:35;;;;;;;;;;;;;;;18.99;28.66;97386.78;10426429;28;3297;-53
2023/02/07 08:30:36;;;;;;;;;;;;;;;18.99;28.72;97381.53;10410829;28;3257;-54
2023/02/07 08:35:36;;;;;;;;;;;;;;;18.96;28.68;97389.06;10423303;28;2466;-52
2023/02/07 08:40:37;;;;;;;;;;;;;;;18.92;28.90;97374.78;10423692;28;3332;-50
2023/02/07 08:45:40;;;;;;;;;;;;;;;18.88;28.91;97382.28;10420338;28;3222;-52
2023/02/07 08:50:40;;;;;;;;;;;;;;;18.83;29.10;97387.44;10403238;28;2857;-53
2023/02/07 08:55:41;;;;;;;;;;;;;;;18.80;29.17;97406.25;10425635;28;2861;-52
2023/02/07 09:00:42;;;;;;;;;;;;;;;18.78;29.17;97396.97;10425448;28;2949;-54
2023/02/07 09:05:42;;;;;;;;;;;;;;;18.73;29.36;97395.03;10431565;28;2426;-54
2023/02/07 09:10:43;;;;;;;;;;;;;;;18.70;29.38;97395.47;10427114;28;3149;-52
2023/02/07 09:15:43;;;;;;;;;;;;;;;18.66;29.36;97404.81;10427959;28;2958;-52
2023/02/07 09:20:43;;;;;;;;;;;;;;;18.66;29.58;97407.44;10422542;28;2931;-53
2023/02/07 09:25:48;;;;;;;;;;;;;;;18.62;29.61;97412.34;10425718;28;2876;-53
2023/02/07 09:30:50;;;;;;;;;;;;;;;18.60;29.92;97411.75;10426331;28;2907;-48
2023/02/07 09:35:50;;;;;;;;;;;;;;;18.55;30.02;97419.50;10423541;28;3353;-49
2023/02/07 09:40:50;;;;;;;;;;;;;;;18.53;30.03;97418.09;10416414;28;3353;-50
2023/02/07 09:45:58;;;;;;;;;;;;;;;18.49;30.28;97423.00;10420101;28;3273;-53
2023/02/07 09:50:59;;;;;;;;;;;;;;;18.49;30.03;97424.81;10407939;28;3049;-50
2023/02/07 09:55:59;;;;;;;;;;;;;;;18.44;30.02;97417.59;10417256;28;3289;-49
2023/02/07 10:01:03;;;;;;;;;;;;;;;18.41;30.10;97415.38;10426340;28;2391;-50
2023/02/07 10:06:04;;;;;;;;;;;;;;;18.39;30.15;97416.63;10408124;28;2876;-50
2023/02/07 10:11:10;;;;;;;;;;;;;;;18.36;30.33;97412.59;10420297;28;2797;-49
2023/02/07 10:16:10;;;;;;;;;;;;;;;18.35;30.30;97412.84;10417658;28;3307;-50
2023/02/07 10:21:20;;;;;;;;;;;;;;;18.32;30.26;97403.56;10418362;28;2428;-53
2023/02/07 10:26:20;;;;;;;;;;;;;;;18.27;30.15;97394.75;10418032;28;2471;-49
2023/02/07 10:31:20;;;;;;;;;;;;;;;18.24;30.08;97395.97;10419162;28;2970;-49
2023/02/07 10:36:21;;;;;;;;;;;;;;;18.23;30.07;97401.47;10416036;28;2877;-50
2023/02/07 10:41:37;;;;;;;;;;;;;;;18.21;30.17;97406.13;10417750;28;3381;-52
2023/02/07 10:46:38;;;;;;;;;;;;;;;18.19;30.48;97405.53;10416900;28;2931;-50
2023/02/07 10:51:40;;;;;;;;;;;;;;;18.18;30.32;97406.56;10401162;28;2848;-46
2023/02/07 10:56:42;;;;;;;;;;;;;;;18.16;30.53;97405.97;10401014;28;2876;-50
2023/02/07 11:01:42;;;;;;;;;;;;;;;18.16;30.47;97405.97;10394590;28;2886;-48
2023/02/07 11:06:42;;;;;;;;;;;;;;;18.18;30.57;97409.19;10405762;28;3316;-49
2023/02/07 11:11:46;;;;;;;;;;;;;;;18.19;30.56;97416.03;10402612;28;2884;-48
2023/02/07 11:16:46;;;;;;;;;;;;;;;18.18;31.34;97414.44;10411713;28;3331;-48
2023/02/07 11:21:47;;;;;;;;;;;;;;;18.19;31.18;97408.97;10413344;28;3336;-50
2023/02/07 11:26:52;;;;;;;;;;;;;;;18.18;31.18;97399.47;10412671;28;2691;-51
2023/02/07 11:31:53;;;;;;;;;;;;;;;18.15;31.07;97399.13;10421549;28;3297;-48
2023/02/07 11:36:53;;;;;;;;;;;;;;;18.14;31.13;97395.69;10425512;28;2832;-49
2023/02/07 11:41:57;;;;;;;;;;;;;;;18.11;31.39;97390.91;10425698;28;2372;-52
2023/02/07 11:46:58;;;;;;;;;;;;;;;18.12;31.21;97370.69;10414738;28;2821;-50
2023/02/07 11:51:58;;;;;;;;;;;;;;;18.11;31.33;97363.84;10417804;28;2483;-50
2023/02/07 11:57:05;;;;;;;;;;;;;;;18.09;31.37;97360.63;10416447;28;3470;-50
2023/02/07 12:02:11;;;;;;;;;;;;;;;18.07;31.35;97360.06;10407597;28;3316;-50
2023/02/07 12:07:13;;;;;;;;;;;;;;;18.06;31.39;97355.81;10418952;28;2789;-50
2023/02/07 12:12:18;;;;;;;;;;;;;;;18.05;31.32;97349.78;10431965;28;2964;-49
2023/02/07 12:17:23;;;;;;;;;;;;;;;18.04;31.39;97349.97;10408426;28;2396;-48
2023/02/07 12:22:25;;;;;;;;;;;;;;;18.03;31.44;97341.34;10407138;28;3238;-50
2023/02/07 12:27:28;;;;;;;;;;;;;;;18.02;31.53;97344.16;10416192;28;3317;-47
2023/02/07 12:32:28;;;;;;;;;;;;;;;18.01;31.48;97337.31;10409997;28;2434;-52
2023/02/07 12:37:28;;;;;;;;;;;;;;;18.01;31.62;97326.81;10431027;28;2825;-49
2023/02/07 12:42:39;;;;;;;;;;;;;;;18.00;31.54;97327.81;10422448;28;2514;-50
2023/02/07 12:47:46;;;;;;;;;;;;;;;18.00;31.65;97317.34;10411608;28;2891;-51
2023/02/07 12:53:06;;;;;;;;;;;;;;;18.04;31.46;97315.88;10409318;28;2872;-49
2023/02/07 12:58:07;;;;;;;;;;;;;;;18.07;31.41;97313.63;10404213;28;2820;-49
2023/02/07 13:03:10;;;;;;;;;;;;;;;18.09;31.74;97301.09;10425863;28;3187;-49
2023/02/07 13:08:29;;;;;;;;;;;;;;;18.09;31.63;97318.66;10419255;28;2868;-48
2023/02/07 13:13:31;;;;;;;;;;;;;;;18.10;31.62;97315.00;10440347;28;2919;-48
2023/02/07 13:18:34;;;;;;;;;;;;;;;18.13;31.60;97319.81;10401759;28;3254;-46
2023/02/07 13:23:35;;;;;;;;;;;;;;;18.19;31.62;97321.56;10456236;28;3320;-49
2023/02/07 13:28:40;;;;;;;;;;;;;;;18.26;31.54;97314.41;10443652;28;2829;-46
2023/02/07 13:33:41;;;;;;;;;;;;;;;18.35;31.42;97327.00;10461722;28;3268;-49
2023/02/07 13:38:50;;;;;;;;;;;;;;;18.45;31.38;97318.63;10460769;28;2865;-52
2023/02/07 13:43:50;;;;;;;;;;;;;;;18.53;31.49;97323.56;10461146;28;3253;-52
2023/02/07 13:49:02;;;;;;;;;;;;;;;18.62;31.09;97324.88;10468464;28;3307;-52
2023/02/07 13:54:05;;;;;;;;;;;;;;;18.75;30.85;97329.94;10453915;28;2864;-49
2023/02/07 14:04:29;;;;;;;;;;;;;;;18.82;30.53;97340.34;10468748;28;3264;-52
2023/02/07 14:09:33;;;;;;;;;;;;;;;18.88;30.08;97340.25;10440980;28;2420;-49
2023/02/07 14:14:35;;;;;;;;;;;;;;;18.91;29.93;97347.69;10443294;28;3256;-46
2023/02/07 14:19:39;;;;;;;;;;;;;;;18.90;30.01;97350.56;10442173;28;3379;-52
2023/02/07 14:24:46;;;;;;;;;;;;;;;18.86;30.19;97359.88;10449067;28;2990;-47
2023/02/07 14:29:58;;;;;;;;;;;;;;;18.84;29.82;97362.75;10465648;28;2471;-49
2023/02/07 14:35:03;;;;;;;;;;;;;;;18.79;30.14;97362.63;10465349;28;2532;-49
2023/02/07 14:40:07;;;;;;;;;;;;;;;18.69;30.71;97362.38;10448948;28;3250;-52
2023/02/07 14:45:16;;;;;;;;;;;;;;;18.67;30.75;97369.63;10441791;28;2428;-50
2023/02/07 14:50:21;;;;;;;;;;;;;;;18.72;30.82;97372.41;10469935;28;3372;-50
2023/02/07 14:55:24;;;;;;;;;;;;;;;18.75;30.68;97371.97;10480306;28;2487;-52
2023/02/07 15:00:39;;;;;;;;;;;;;;;18.78;30.66;97375.97;10441418;28;2870;-49
2023/02/07 15:06:12;;;;;;;;;;;;;;;18.80;30.85;97379.16;10466651;28;2876;-50
2023/02/07 15:11:12;;;;;;;;;;;;;;;18.84;30.72;97377.69;10406618;28;3241;-53
2023/02/07 15:16:14;;;;;;;;;;;;;;;18.85;30.61;97388.00;10461943;28;3261;-51
2023/02/07 15:21:15;;;;;;;;;;;;;;;18.85;30.61;97385.38;10433690;28;2546;-51
2023/02/07 15:26:17;;;;;;;;;;;;;;;18.86;30.63;97389.59;10388024;28;2936;-49
2023/02/07 15:31:17;;;;;;;;;;;;;;;18.87;30.52;97396.47;10394862;28;2415;-48
2023/02/07 15:36:26;;;;;;;;;;;;;;;18.89;30.50;97394.41;10419485;28;3313;-50
2023/02/07 15:41:27;;;;;;;;;;;;;;;18.90;30.48;97395.22;10418176;28;2796;-51
2023/02/07 15:46:43;;;;;;;;;;;;;;;18.91;30.42;97400.25;10400803;28;2431;-49
2023/02/07 15:51:43;;;;;;;;;;;;;;;18.93;30.43;97405.28;10413513;28;2439;-49
2023/02/07 15:56:44;;;;;;;;;;;;;;;18.94;30.31;97418.19;10415043;28;2855;-48
2023/02/07 16:01:51;;;;;;;;;;;;;;;18.96;30.21;97418.75;10396146;28;3265;-49
2023/02/07 16:06:58;;;;;;;;;;;;;;;18.98;30.21;97419.34;10391843;28;3433;-48
2023/02/07 16:12:37;;;;;;;;;;;;;;;18.98;30.06;97421.19;10409170;28;3323;-47
2023/02/07 16:17:40;;;;;;;;;;;;;;;18.97;30.05;97425.63;10407418;28;2443;-50
2023/02/07 16:22:42;;;;;;;;;;;;;;;18.96;30.03;97431.91;10407393;28;3226;-47
2023/02/07 16:27:43;;;;;;;;;;;;;;;18.98;30.06;97437.72;10414389;28;2805;-49
2023/02/07 16:32:43;;;;;;;;;;;;;;;18.98;30.03;97434.31;10412184;28;3237;-50
2023/02/07 16:37:43;;;;;;;;;;;;;;;18.99;29.98;97434.09;10409454;28;2880;-50
2023/02/07 16:42:44;;;;;;;;;;;;;;;18.99;29.99;97441.97;10418454;28;2457;-47
2023/02/07 16:47:44;;;;;;;;;;;;;;;18.97;29.98;97432.72;10415061;28;2411;-51
2023/02/07 16:52:45;;;;;;;;;;;;;;;18.97;29.99;97433.50;10419408;28;2407;-49
2023/02/07 16:57:45;;;;;;;;;;;;;;;18.95;29.92;97435.56;10418517;28;3320;-49
2023/02/07 17:02:47;;;;;;;;;;;;;;;18.94;29.85;97439.19;10414929;28;2835;-47
2023/02/07 17:07:48;;;;;;;;;;;;;;;18.92;30.00;97451.75;10417569;28;2416;-47
2023/02/07 17:12:48;;;;;;;;;;;;;;;18.91;29.87;97444.91;10420791;28;2918;-49
2023/02/07 17:17:50;;;;;;;;;;;;;;;18.93;30.07;97445.50;10417508;28;3253;-50
2023/02/07 17:22:51;;;;;;;;;;;;;;;18.93;29.89;97437.63;10414420;28;2829;-51
2023/02/07 17:27:51;;;;;;;;;;;;;;;18.98;29.94;97447.47;10430579;28;2863;-52
2023/02/07 17:32:51;;;;;;;;;;;;;;;19.04;30.13;97439.47;10412201;28;2863;-47
2023/02/07 17:37:52;;;;;;;;;;;;;;;19.08;30.15;97437.22;10412689;28;2852;-49
2023/02/07 17:42:52;;;;;;;;;;;;;;;19.12;30.35;97451.50;10421033;28;3309;-48
2023/02/07 17:47:55;;;;;;;;;;;;;;;19.15;30.43;97449.22;10415458;28;2422;-49
2023/02/07 17:52:55;;;;;;;;;;;;;;;19.15;30.41;97451.88;10419944;28;3382;-51
2023/02/07 17:57:56;;;;;;;;;;;;;;;19.16;30.18;97447.41;10421090;28;2860;-49
2023/02/07 18:02:56;;;;;;;;;;;;;;;19.17;30.18;97454.25;10401006;28;2848;-51
2023/02/07 18:07:56;;;;;;;;;;;;;;;19.15;30.13;97451.88;10424453;28;3222;-47
2023/02/07 18:12:56;;;;;;;;;;;;;;;19.14;29.93;97450.28;10415200;28;2811;-49
2023/02/07 18:17:57;;;;;;;;;;;;;;;19.12;29.85;97447.06;10413027;28;2429;-50
2023/02/07 18:22:57;;;;;;;;;;;;;;;19.09;29.85;97441.44;10417167;28;3354;-53
2023/02/07 18:28:00;;;;;;;;;;;;;;;19.10;29.86;97449.09;10410621;28;2585;-49
2023/02/07 18:33:00;;;;;;;;;;;;;;;19.08;29.78;97448.50;10410551;28;2860;-52
2023/02/07 18:38:00;;;;;;;;;;;;;;;19.08;29.73;97451.13;10410643;28;2837;-52
2023/02/07 18:43:01;;;;;;;;;;;;;;;19.11;29.61;97450.72;10414347;28;3345;-47
2023/02/07 18:48:01;;;;;;;;;;;;;;;19.12;29.54;97456.78;10419080;28;3409;-51
2023/02/07 18:53:04;;;;;;;;;;;;;;;19.13;29.44;97448.66;10412886;28;3309;-48
2023/02/07 18:58:04;;;;;;;;;;;;;;;19.12;29.91;97444.44;10428759;28;2845;-50
2023/02/07 19:03:04;;;;;;;;;;;;;;;19.13;30.07;97446.03;10430686;28;2423;-53
2023/02/07 19:08:04;;;;;;;;;;;;;;;19.16;29.84;97455.31;10421571;28;3305;-50
2023/02/07 19:13:05;;;;;;;;;;;;;;;19.16;29.97;97448.22;10416395;28;3297;-53
2023/02/07 19:18:05;;;;;;;;;;;;;;;19.16;30.10;97456.09;10397490;28;3046;-53
2023/02/07 19:23:06;;;;;;;;;;;;;;;19.16;30.10;97461.38;10410921;28;3029;-53
2023/02/07 19:28:06;;;;;;;;;;;;;;;19.16;30.15;97458.75;10410873;28;2528;-50
2023/02/07 19:33:06;;;;;;;;;;;;;;;19.14;30.08;97460.78;10415133;28;2514;-50
2023/02/07 19:38:06;;;;;;;;;;;;;;;19.14;30.11;97454.72;10418934;28;3025;-51
2023/02/07 19:43:07;;;;;;;;;;;;;;;19.13;30.13;97451.28;10419352;28;2550;-50
2023/02/07 19:48:07;;;;;;;;;;;;;;;19.11;30.30;97455.16;10412258;28;2454;-51
2023/02/07 19:53:07;;;;;;;;;;;;;;;19.13;30.11;97461.00;10420376;28;2979;-52
2023/02/07 19:58:07;;;;;;;;;;;;;;;19.10;30.17;97459.59;10417552;28;2993;-54
2023/02/07 20:03:08;;;;;;;;;;;;;;;19.11;30.02;97470.94;10421987;28;2407;-53
2023/02/07 20:08:08;;;;;;;;;;;;;;;19.10;30.06;97464.06;10422708;28;2490;-51
2023/02/07 20:13:08;;;;;;;;;;;;;;;19.10;30.00;97469.34;10411763;28;2537;-49
2023/02/07 20:18:09;;;;;;;;;;;;;;;19.10;29.88;97464.06;10418828;28;2594;-50
2023/02/07 20:23:09;;;;;;;;;;;;;;;19.10;29.80;97464.06;10419936;28;2553;-52
2023/02/07 20:28:09;;;;;;;;;;;;;;;19.07;29.70;97472.41;10428578;28;3186;-50
2023/02/07 20:33:10;;;;;;;;;;;;;;;19.07;29.65;97475.84;10420534;28;2466;-52
2023/02/07 20:38:10;;;;;;;;;;;;;;;19.07;29.73;97475.03;10413828;28;3027;-50
2023/02/07 20:43:10;;;;;;;;;;;;;;;19.06;29.47;97473.44;10415437;28;2439;-51
2023/02/07 20:48:13;;;;;;;;;;;;;;;19.04;29.46;97481.53;10418926;28;2562;-50
2023/02/07 20:53:14;;;;;;;;;;;;;;;19.01;29.34;97484.59;10418749;28;2570;-48
2023/02/07 20:58:14;;;;;;;;;;;;;;;18.98;29.38;97486.88;10401125;28;3101;-49
2023/02/07 21:03:14;;;;;;;;;;;;;;;18.91;29.33;97483.53;10425233;28;3060;-48
2023/02/07 21:08:15;;;;;;;;;;;;;;;18.87;29.26;97493.69;10422800;28;2549;-48
2023/02/07 21:13:16;;;;;;;;;;;;;;;18.83;29.26;97489.09;10420708;28;2680;-49
2023/02/07 21:18:16;;;;;;;;;;;;;;;18.78;29.18;97492.38;10423148;28;3061;-50
2023/02/07 21:23:17;;;;;;;;;;;;;;;18.73;29.22;97489.59;10416690;28;2470;-48
2023/02/07 21:28:17;;;;;;;;;;;;;;;18.69;29.31;97475.31;10420914;28;3094;-50
2023/02/07 21:33:17;;;;;;;;;;;;;;;18.61;28.96;97473.75;10414247;28;2585;-48
2023/02/07 21:38:18;;;;;;;;;;;;;;;18.58;28.85;97476.03;10412839;28;2624;-51
2023/02/07 21:43:19;;;;;;;;;;;;;;;18.52;28.93;97471.66;10415179;28;3034;-50
2023/02/07 21:48:21;;;;;;;;;;;;;;;18.46;28.79;97472.53;10411989;28;2607;-50
2023/02/07 21:53:21;;;;;;;;;;;;;;;18.42;28.91;97466.88;10412035;28;2458;-49
2023/02/07 21:58:21;;;;;;;;;;;;;;;18.37;28.93;97458.03;10420939;28;3075;-47
2023/02/07 22:03:21;;;;;;;;;;;;;;;18.35;28.81;97467.97;10411293;28;2491;-48
2023/02/07 22:08:22;;;;;;;;;;;;;;;18.31;28.97;97464.16;10427310;28;2503;-51
2023/02/07 22:13:22;;;;;;;;;;;;;;;18.27;28.91;97468.25;10419538;28;2652;-50
2023/02/07 22:18:23;;;;;;;;;;;;;;;18.24;28.89;97466.03;10418018;28;2486;-50
2023/02/07 22:23:23;;;;;;;;;;;;;;;18.20;28.95;97455.19;10413597;28;2443;-50
2023/02/07 22:28:23;;;;;;;;;;;;;;;18.17;29.02;97449.56;10420504;28;3022;-47
2023/02/07 22:33:23;;;;;;;;;;;;;;;18.13;29.03;97443.16;10415548;28;2482;-49
2023/02/07 22:38:24;;;;;;;;;;;;;;;18.09;29.00;97442.81;10415139;28;3236;-50
2023/02/07 22:43:24;;;;;;;;;;;;;;;18.07;29.01;97446.66;10418285;28;2515;-49
2023/02/07 22:48:24;;;;;;;;;;;;;;;18.01;29.01;97445.69;10415817;28;2564;-48
2023/02/07 22:53:25;;;;;;;;;;;;;;;18.01;28.87;97452.75;10409789;28;2424;-49
2023/02/07 22:58:25;;;;;;;;;;;;;;;17.99;29.01;97441.69;10414505;28;2989;-51
2023/02/07 23:03:26;;;;;;;;;;;;;;;17.94;28.97;97431.03;10408499;28;2418;-48
2023/02/07 23:08:26;;;;;;;;;;;;;;;17.91;28.90;97427.00;10414162;28;2537;-51
2023/02/07 23:13:26;;;;;;;;;;;;;;;17.89;28.86;97439.53;10417871;28;2990;-50
2023/02/07 23:18:26;;;;;;;;;;;;;;;17.85;28.83;97427.88;10409181;28;3029;-50
2023/02/07 23:23:27;;;;;;;;;;;;;;;17.83;28.96;97435.97;10407154;28;2411;-50
2023/02/07 23:28:27;;;;;;;;;;;;;;;17.79;28.94;97426.91;10412716;28;3039;-50
2023/02/07 23:33:28;;;;;;;;;;;;;;;17.77;28.79;97428.97;10417801;28;3073;-51
2023/02/07 23:38:28;;;;;;;;;;;;;;;17.74;28.82;97426.75;10410475;28;3061;-50
2023/02/07 23:43:28;;;;;;;;;;;;;;;17.71;28.86;97424.56;10414043;28;2891;-52
2023/02/07 23:48:29;;;;;;;;;;;;;;;17.68;28.99;97419.75;10416398;28;2998;-51
2023/02/07 23:53:29;;;;;;;;;;;;;;;17.66;28.98;97419.16;10411119;28;3024;-50
2023/02/07 23:58:29;;;;;;;;;;;;;;;17.63;28.92;97424.84;10418619;28;2594;-51
